sensor_id;sensor_type;location;lat;lon;timestamp;P1;durP1;ratioP1;P2;durP2;ratioP2
9007;SDS011;4539;51.424;6.762;2022-08-03T00:01:48;4.60;;;2.63;;
9007;SDS011;4539;51.424;6.762;2022-08-03T00:04:15;4.73;;;2.57;;
9007;SDS011;4539;51.424;6.762;2022-08-03T00:06:42;4.03;;;2.87;;
9007;SDS011;4539;51.424;6.762;2022-08-03T00:09:08;3.40;;;2.27;;
9007;SDS011;4539;51.424;6.762;2022-08-03T00:11:36;4.43;;;2.60;;
9007;SDS011;4539;51.424;6.762;2022-08-03T00:14:03;4.30;;;2.60;;
9007;SDS011;4539;51.424;6.762;2022-08-03T00:16:30;5.00;;;2.53;;
9007;SDS011;4539;51.424;6.762;2022-08-03T00:18:57;4.30;;;2.73;;
9007;SDS011;4539;51.424;6.762;2022-08-03T00:21:26;6.33;;;2.67;;
9007;SDS011;4539;51.424;6.762;2022-08-03T00:23:52;7.27;;;2.30;;
9007;SDS011;4539;51.424;6.762;2022-08-03T00:26:19;4.23;;;2.43;;
9007;SDS011;4539;51.424;6.762;2022-08-03T00:28:46;6.03;;;2.40;;
9007;SDS011;4539;51.424;6.762;2022-08-03T00:31:13;4.70;;;2.97;;
9007;SDS011;4539;51.424;6.762;2022-08-03T00:33:39;4.47;;;2.50;;
9007;SDS011;4539;51.424;6.762;2022-08-03T00:36:24;3.93;;;2.70;;
9007;SDS011;4539;51.424;6.762;2022-08-03T00:38:51;4.13;;;2.23;;
9007;SDS011;4539;51.424;6.762;2022-08-03T00:41:18;7.60;;;2.63;;
9007;SDS011;4539;51.424;6.762;2022-08-03T00:43:45;2.50;;;2.30;;
9007;SDS011;4539;51.424;6.762;2022-08-03T00:46:12;6.83;;;2.70;;
9007;SDS011;4539;51.424;6.762;2022-08-03T00:48:46;5.60;;;2.37;;
9007;SDS011;4539;51.424;6.762;2022-08-03T00:51:14;5.87;;;2.70;;
9007;SDS011;4539;51.424;6.762;2022-08-03T00:53:41;2.60;;;2.40;;
9007;SDS011;4539;51.424;6.762;2022-08-03T00:56:08;5.73;;;3.20;;
9007;SDS011;4539;51.424;6.762;2022-08-03T00:58:42;4.93;;;3.17;;
9007;SDS011;4539;51.424;6.762;2022-08-03T01:01:10;5.57;;;2.97;;
9007;SDS011;4539;51.424;6.762;2022-08-03T01:03:37;3.90;;;2.20;;
9007;SDS011;4539;51.424;6.762;2022-08-03T01:06:17;5.17;;;2.87;;
9007;SDS011;4539;51.424;6.762;2022-08-03T01:08:52;5.07;;;2.80;;
9007;SDS011;4539;51.424;6.762;2022-08-03T01:11:37;5.07;;;2.77;;
9007;SDS011;4539;51.424;6.762;2022-08-03T01:14:32;3.17;;;2.67;;
9007;SDS011;4539;51.424;6.762;2022-08-03T01:17:10;5.20;;;2.97;;
9007;SDS011;4539;51.424;6.762;2022-08-03T01:34:58;6.23;;;2.80;;
9007;SDS011;4539;51.424;6.762;2022-08-03T01:37:40;3.97;;;2.53;;
9007;SDS011;4539;51.424;6.762;2022-08-03T01:40:10;3.57;;;2.60;;
9007;SDS011;4539;51.424;6.762;2022-08-03T01:42:39;6.07;;;2.90;;
9007;SDS011;4539;51.424;6.762;2022-08-03T01:45:07;5.90;;;2.87;;
9007;SDS011;4539;51.424;6.762;2022-08-03T01:47:35;4.93;;;2.77;;
9007;SDS011;4539;51.424;6.762;2022-08-03T01:50:03;7.07;;;3.00;;
9007;SDS011;4539;51.424;6.762;2022-08-03T01:52:31;4.87;;;2.70;;
9007;SDS011;4539;51.424;6.762;2022-08-03T01:54:59;4.80;;;2.80;;
9007;SDS011;4539;51.424;6.762;2022-08-03T01:57:28;4.47;;;2.90;;
9007;SDS011;4539;51.424;6.762;2022-08-03T01:59:56;3.83;;;2.83;;
9007;SDS011;4539;51.424;6.762;2022-08-03T02:02:26;6.93;;;3.00;;
9007;SDS011;4539;51.424;6.762;2022-08-03T02:04:59;4.67;;;3.20;;
9007;SDS011;4539;51.424;6.762;2022-08-03T02:07:28;6.17;;;3.00;;
9007;SDS011;4539;51.424;6.762;2022-08-03T02:09:57;4.73;;;2.80;;
9007;SDS011;4539;51.424;6.762;2022-08-03T02:12:26;4.77;;;3.00;;
9007;SDS011;4539;51.424;6.762;2022-08-03T02:14:55;6.37;;;2.97;;
9007;SDS011;4539;51.424;6.762;2022-08-03T02:17:26;6.47;;;3.07;;
9007;SDS011;4539;51.424;6.762;2022-08-03T02:20:05;4.83;;;2.73;;
9007;SDS011;4539;51.424;6.762;2022-08-03T02:22:34;4.30;;;2.80;;
9007;SDS011;4539;51.424;6.762;2022-08-03T02:25:02;4.97;;;3.20;;
9007;SDS011;4539;51.424;6.762;2022-08-03T02:27:29;4.77;;;3.00;;
9007;SDS011;4539;51.424;6.762;2022-08-03T02:30:02;3.63;;;2.70;;
9007;SDS011;4539;51.424;6.762;2022-08-03T02:32:33;7.47;;;2.97;;
9007;SDS011;4539;51.424;6.762;2022-08-03T02:35:03;3.77;;;2.90;;
9007;SDS011;4539;51.424;6.762;2022-08-03T02:37:35;3.57;;;3.00;;
9007;SDS011;4539;51.424;6.762;2022-08-03T02:40:14;5.30;;;2.80;;
9007;SDS011;4539;51.424;6.762;2022-08-03T02:42:44;6.77;;;3.00;;
9007;SDS011;4539;51.424;6.762;2022-08-03T02:45:14;6.00;;;2.90;;
9007;SDS011;4539;51.424;6.762;2022-08-03T02:47:43;6.07;;;2.80;;
9007;SDS011;4539;51.424;6.762;2022-08-03T02:50:20;4.47;;;2.80;;
9007;SDS011;4539;51.424;6.762;2022-08-03T02:52:48;5.20;;;2.90;;
9007;SDS011;4539;51.424;6.762;2022-08-03T02:55:16;6.67;;;2.70;;
9007;SDS011;4539;51.424;6.762;2022-08-03T02:57:44;6.43;;;3.07;;
9007;SDS011;4539;51.424;6.762;2022-08-03T03:00:13;4.73;;;3.20;;
9007;SDS011;4539;51.424;6.762;2022-08-03T03:02:53;4.73;;;3.23;;
9007;SDS011;4539;51.424;6.762;2022-08-03T03:05:24;6.37;;;3.37;;
9007;SDS011;4539;51.424;6.762;2022-08-03T03:08:14;5.93;;;3.00;;
9007;SDS011;4539;51.424;6.762;2022-08-03T03:10:48;7.17;;;2.90;;
9007;SDS011;4539;51.424;6.762;2022-08-03T03:13:20;5.60;;;3.23;;
9007;SDS011;4539;51.424;6.762;2022-08-03T03:15:48;4.07;;;2.77;;
9007;SDS011;4539;51.424;6.762;2022-08-03T03:18:15;6.40;;;3.33;;
9007;SDS011;4539;51.424;6.762;2022-08-03T03:20:47;9.33;;;3.57;;
9007;SDS011;4539;51.424;6.762;2022-08-03T03:23:16;5.50;;;3.27;;
9007;SDS011;4539;51.424;6.762;2022-08-03T03:25:45;4.40;;;2.90;;
9007;SDS011;4539;51.424;6.762;2022-08-03T03:28:12;7.67;;;3.17;;
9007;SDS011;4539;51.424;6.762;2022-08-03T03:30:39;8.53;;;3.47;;
9007;SDS011;4539;51.424;6.762;2022-08-03T03:33:06;5.43;;;3.10;;
9007;SDS011;4539;51.424;6.762;2022-08-03T03:35:33;4.50;;;3.33;;
9007;SDS011;4539;51.424;6.762;2022-08-03T03:38:05;5.27;;;3.07;;
9007;SDS011;4539;51.424;6.762;2022-08-03T03:40:32;9.07;;;3.40;;
9007;SDS011;4539;51.424;6.762;2022-08-03T03:43:00;4.93;;;3.50;;
9007;SDS011;4539;51.424;6.762;2022-08-03T03:45:28;7.43;;;3.70;;
9007;SDS011;4539;51.424;6.762;2022-08-03T03:47:58;7.70;;;3.60;;
9007;SDS011;4539;51.424;6.762;2022-08-03T03:50:25;8.40;;;3.50;;
9007;SDS011;4539;51.424;6.762;2022-08-03T03:52:53;5.90;;;3.63;;
9007;SDS011;4539;51.424;6.762;2022-08-03T03:55:20;5.20;;;3.40;;
9007;SDS011;4539;51.424;6.762;2022-08-03T03:57:46;5.93;;;3.40;;
9007;SDS011;4539;51.424;6.762;2022-08-03T04:00:13;6.43;;;3.97;;
9007;SDS011;4539;51.424;6.762;2022-08-03T04:02:41;8.10;;;4.10;;
9007;SDS011;4539;51.424;6.762;2022-08-03T04:05:08;6.57;;;3.37;;
9007;SDS011;4539;51.424;6.762;2022-08-03T04:08:00;7.03;;;3.80;;
9007;SDS011;4539;51.424;6.762;2022-08-03T04:14:02;4.93;;;3.60;;
9007;SDS011;4539;51.424;6.762;2022-08-03T04:16:34;6.90;;;3.80;;
9007;SDS011;4539;51.424;6.762;2022-08-03T04:19:09;4.33;;;3.70;;
9007;SDS011;4539;51.424;6.762;2022-08-03T04:21:39;6.03;;;4.10;;
9007;SDS011;4539;51.424;6.762;2022-08-03T04:24:08;4.77;;;3.43;;
9007;SDS011;4539;51.424;6.762;2022-08-03T04:26:38;6.40;;;4.03;;
9007;SDS011;4539;51.424;6.762;2022-08-03T04:29:06;4.50;;;3.90;;
9007;SDS011;4539;51.424;6.762;2022-08-03T04:31:35;4.43;;;3.80;;
9007;SDS011;4539;51.424;6.762;2022-08-03T04:34:04;4.50;;;4.03;;
9007;SDS011;4539;51.424;6.762;2022-08-03T04:36:31;9.67;;;3.93;;
9007;SDS011;4539;51.424;6.762;2022-08-03T04:39:03;5.23;;;3.90;;
9007;SDS011;4539;51.424;6.762;2022-08-03T04:41:33;4.80;;;3.90;;
9007;SDS011;4539;51.424;6.762;2022-08-03T04:44:22;6.10;;;3.70;;
9007;SDS011;4539;51.424;6.762;2022-08-03T04:46:54;5.30;;;4.03;;
9007;SDS011;4539;51.424;6.762;2022-08-03T04:49:21;4.10;;;3.40;;
9007;SDS011;4539;51.424;6.762;2022-08-03T04:51:49;4.20;;;3.33;;
9007;SDS011;4539;51.424;6.762;2022-08-03T04:54:16;7.63;;;3.67;;
9007;SDS011;4539;51.424;6.762;2022-08-03T04:56:42;6.93;;;3.60;;
9007;SDS011;4539;51.424;6.762;2022-08-03T04:59:09;5.80;;;4.00;;
9007;SDS011;4539;51.424;6.762;2022-08-03T05:01:36;7.97;;;3.70;;
9007;SDS011;4539;51.424;6.762;2022-08-03T05:04:04;5.47;;;3.57;;
9007;SDS011;4539;51.424;6.762;2022-08-03T05:06:30;7.30;;;4.13;;
9007;SDS011;4539;51.424;6.762;2022-08-03T05:08:57;5.53;;;4.23;;
9007;SDS011;4539;51.424;6.762;2022-08-03T05:11:24;4.73;;;3.73;;
9007;SDS011;4539;51.424;6.762;2022-08-03T05:13:51;7.03;;;4.20;;
9007;SDS011;4539;51.424;6.762;2022-08-03T05:16:17;6.17;;;4.30;;
9007;SDS011;4539;51.424;6.762;2022-08-03T05:18:44;5.80;;;3.90;;
9007;SDS011;4539;51.424;6.762;2022-08-03T05:21:11;8.80;;;4.30;;
9007;SDS011;4539;51.424;6.762;2022-08-03T05:23:39;7.30;;;4.03;;
9007;SDS011;4539;51.424;6.762;2022-08-03T05:26:06;9.00;;;4.40;;
9007;SDS011;4539;51.424;6.762;2022-08-03T05:28:33;4.63;;;3.90;;
9007;SDS011;4539;51.424;6.762;2022-08-03T05:30:59;7.07;;;4.40;;
9007;SDS011;4539;51.424;6.762;2022-08-03T05:33:26;9.10;;;4.27;;
9007;SDS011;4539;51.424;6.762;2022-08-03T05:35:52;5.20;;;3.67;;
9007;SDS011;4539;51.424;6.762;2022-08-03T05:38:29;8.67;;;4.43;;
9007;SDS011;4539;51.424;6.762;2022-08-03T05:41:00;5.43;;;4.03;;
9007;SDS011;4539;51.424;6.762;2022-08-03T05:43:48;6.97;;;4.27;;
9007;SDS011;4539;51.424;6.762;2022-08-03T05:46:15;7.83;;;3.93;;
9007;SDS011;4539;51.424;6.762;2022-08-03T05:48:41;9.83;;;4.80;;
9007;SDS011;4539;51.424;6.762;2022-08-03T05:51:08;6.87;;;4.20;;
9007;SDS011;4539;51.424;6.762;2022-08-03T05:53:37;9.10;;;4.20;;
9007;SDS011;4539;51.424;6.762;2022-08-03T05:56:05;6.00;;;4.43;;
9007;SDS011;4539;51.424;6.762;2022-08-03T05:58:46;5.67;;;4.07;;
9007;SDS011;4539;51.424;6.762;2022-08-03T06:01:14;10.87;;;4.77;;
9007;SDS011;4539;51.424;6.762;2022-08-03T06:03:42;6.30;;;4.20;;
9007;SDS011;4539;51.424;6.762;2022-08-03T06:06:08;9.37;;;4.27;;
9007;SDS011;4539;51.424;6.762;2022-08-03T06:08:36;5.97;;;4.23;;
9007;SDS011;4539;51.424;6.762;2022-08-03T06:11:03;8.00;;;4.47;;
9007;SDS011;4539;51.424;6.762;2022-08-03T06:13:30;5.60;;;4.30;;
9007;SDS011;4539;51.424;6.762;2022-08-03T06:15:57;7.23;;;4.40;;
9007;SDS011;4539;51.424;6.762;2022-08-03T06:18:23;6.90;;;4.47;;
9007;SDS011;4539;51.424;6.762;2022-08-03T06:20:51;8.67;;;4.60;;
9007;SDS011;4539;51.424;6.762;2022-08-03T06:23:18;5.97;;;4.40;;
9007;SDS011;4539;51.424;6.762;2022-08-03T06:25:45;7.03;;;4.33;;
9007;SDS011;4539;51.424;6.762;2022-08-03T06:28:12;6.73;;;4.23;;
9007;SDS011;4539;51.424;6.762;2022-08-03T06:30:59;7.80;;;4.63;;
9007;SDS011;4539;51.424;6.762;2022-08-03T06:33:26;7.10;;;4.13;;
9007;SDS011;4539;51.424;6.762;2022-08-03T06:36:14;5.67;;;4.13;;
9007;SDS011;4539;51.424;6.762;2022-08-03T06:38:40;6.13;;;4.30;;
9007;SDS011;4539;51.424;6.762;2022-08-03T06:41:08;6.23;;;4.33;;
9007;SDS011;4539;51.424;6.762;2022-08-03T06:43:34;5.80;;;4.20;;
9007;SDS011;4539;51.424;6.762;2022-08-03T06:46:03;6.10;;;4.40;;
9007;SDS011;4539;51.424;6.762;2022-08-03T06:48:33;7.60;;;4.60;;
9007;SDS011;4539;51.424;6.762;2022-08-03T06:50:59;9.47;;;4.40;;
9007;SDS011;4539;51.424;6.762;2022-08-03T06:53:26;5.20;;;4.40;;
9007;SDS011;4539;51.424;6.762;2022-08-03T06:55:52;6.10;;;4.00;;
9007;SDS011;4539;51.424;6.762;2022-08-03T06:58:20;10.60;;;4.67;;
9007;SDS011;4539;51.424;6.762;2022-08-03T07:00:47;7.33;;;4.70;;
9007;SDS011;4539;51.424;6.762;2022-08-03T07:03:15;9.77;;;4.87;;
9007;SDS011;4539;51.424;6.762;2022-08-03T07:05:41;8.37;;;4.60;;
9007;SDS011;4539;51.424;6.762;2022-08-03T07:08:09;7.07;;;4.63;;
9007;SDS011;4539;51.424;6.762;2022-08-03T07:10:35;6.07;;;4.83;;
9007;SDS011;4539;51.424;6.762;2022-08-03T07:13:02;6.83;;;4.40;;
9007;SDS011;4539;51.424;6.762;2022-08-03T07:15:29;10.47;;;4.40;;
9007;SDS011;4539;51.424;6.762;2022-08-03T07:18:16;8.43;;;4.37;;
9007;SDS011;4539;51.424;6.762;2022-08-03T07:20:53;9.70;;;4.70;;
9007;SDS011;4539;51.424;6.762;2022-08-03T07:23:20;7.37;;;4.77;;
9007;SDS011;4539;51.424;6.762;2022-08-03T07:25:47;12.20;;;5.17;;
9007;SDS011;4539;51.424;6.762;2022-08-03T07:28:13;13.37;;;5.53;;
9007;SDS011;4539;51.424;6.762;2022-08-03T07:30:40;11.13;;;4.50;;
9007;SDS011;4539;51.424;6.762;2022-08-03T07:33:07;8.37;;;5.10;;
9007;SDS011;4539;51.424;6.762;2022-08-03T07:35:33;12.53;;;5.43;;
9007;SDS011;4539;51.424;6.762;2022-08-03T07:38:00;10.67;;;5.37;;
9007;SDS011;4539;51.424;6.762;2022-08-03T07:40:26;9.87;;;5.10;;
9007;SDS011;4539;51.424;6.762;2022-08-03T07:42:57;8.80;;;4.63;;
9007;SDS011;4539;51.424;6.762;2022-08-03T07:45:24;11.37;;;5.27;;
9007;SDS011;4539;51.424;6.762;2022-08-03T07:47:52;13.43;;;7.03;;
9007;SDS011;4539;51.424;6.762;2022-08-03T07:50:19;14.13;;;6.90;;
9007;SDS011;4539;51.424;6.762;2022-08-03T07:52:47;15.90;;;5.53;;
9007;SDS011;4539;51.424;6.762;2022-08-03T07:55:16;9.47;;;4.53;;
9007;SDS011;4539;51.424;6.762;2022-08-03T07:58:04;12.20;;;4.70;;
9007;SDS011;4539;51.424;6.762;2022-08-03T08:00:32;7.73;;;4.60;;
9007;SDS011;4539;51.424;6.762;2022-08-03T08:02:59;7.47;;;5.20;;
9007;SDS011;4539;51.424;6.762;2022-08-03T08:05:26;13.37;;;5.27;;
9007;SDS011;4539;51.424;6.762;2022-08-03T08:07:53;11.30;;;5.03;;
9007;SDS011;4539;51.424;6.762;2022-08-03T08:10:19;13.93;;;5.10;;
9007;SDS011;4539;51.424;6.762;2022-08-03T08:12:46;12.40;;;5.63;;
9007;SDS011;4539;51.424;6.762;2022-08-03T08:15:14;10.50;;;5.40;;
9007;SDS011;4539;51.424;6.762;2022-08-03T08:17:41;8.43;;;4.50;;
9007;SDS011;4539;51.424;6.762;2022-08-03T08:20:17;11.93;;;5.70;;
9007;SDS011;4539;51.424;6.762;2022-08-03T08:22:54;12.40;;;5.00;;
9007;SDS011;4539;51.424;6.762;2022-08-03T08:25:23;11.37;;;5.43;;
9007;SDS011;4539;51.424;6.762;2022-08-03T08:27:50;12.10;;;6.00;;
9007;SDS011;4539;51.424;6.762;2022-08-03T08:30:37;12.93;;;5.80;;
9007;SDS011;4539;51.424;6.762;2022-08-03T08:33:04;12.83;;;5.37;;
9007;SDS011;4539;51.424;6.762;2022-08-03T08:35:30;12.60;;;5.20;;
9007;SDS011;4539;51.424;6.762;2022-08-03T08:37:58;12.07;;;5.20;;
9007;SDS011;4539;51.424;6.762;2022-08-03T08:40:30;10.77;;;5.03;;
9007;SDS011;4539;51.424;6.762;2022-08-03T08:42:57;11.17;;;5.33;;
9007;SDS011;4539;51.424;6.762;2022-08-03T08:45:24;7.23;;;3.97;;
9007;SDS011;4539;51.424;6.762;2022-08-03T08:47:52;6.53;;;3.90;;
9007;SDS011;4539;51.424;6.762;2022-08-03T08:50:28;8.00;;;3.80;;
9007;SDS011;4539;51.424;6.762;2022-08-03T08:52:55;6.03;;;3.57;;
9007;SDS011;4539;51.424;6.762;2022-08-03T08:55:27;9.17;;;3.80;;
9007;SDS011;4539;51.424;6.762;2022-08-03T08:58:15;8.73;;;3.10;;
9007;SDS011;4539;51.424;6.762;2022-08-03T09:00:46;7.43;;;3.13;;
9007;SDS011;4539;51.424;6.762;2022-08-03T09:03:13;6.87;;;3.50;;
9007;SDS011;4539;51.424;6.762;2022-08-03T09:05:54;6.27;;;3.20;;
9007;SDS011;4539;51.424;6.762;2022-08-03T09:08:22;6.63;;;3.00;;
9007;SDS011;4539;51.424;6.762;2022-08-03T09:10:48;6.07;;;3.33;;
9007;SDS011;4539;51.424;6.762;2022-08-03T09:13:15;10.87;;;3.80;;
9007;SDS011;4539;51.424;6.762;2022-08-03T09:15:42;8.33;;;2.93;;
9007;SDS011;4539;51.424;6.762;2022-08-03T09:18:29;9.40;;;2.60;;
9007;SDS011;4539;51.424;6.762;2022-08-03T09:23:57;7.57;;;2.97;;
9007;SDS011;4539;51.424;6.762;2022-08-03T09:26:29;11.67;;;3.87;;
9007;SDS011;4539;51.424;6.762;2022-08-03T09:28:57;5.40;;;3.10;;
9007;SDS011;4539;51.424;6.762;2022-08-03T09:31:42;5.90;;;2.93;;
9007;SDS011;4539;51.424;6.762;2022-08-03T09:34:11;5.50;;;2.90;;
9007;SDS011;4539;51.424;6.762;2022-08-03T09:39:15;12.63;;;3.00;;
9007;SDS011;4539;51.424;6.762;2022-08-03T09:41:47;11.23;;;3.37;;
9007;SDS011;4539;51.424;6.762;2022-08-03T09:44:33;9.33;;;3.13;;
9007;SDS011;4539;51.424;6.762;2022-08-03T09:47:02;9.40;;;3.10;;
9007;SDS011;4539;51.424;6.762;2022-08-03T09:49:30;10.37;;;2.73;;
9007;SDS011;4539;51.424;6.762;2022-08-03T09:52:01;7.50;;;2.70;;
9007;SDS011;4539;51.424;6.762;2022-08-03T09:54:58;8.00;;;2.63;;
9007;SDS011;4539;51.424;6.762;2022-08-03T09:57:27;6.33;;;2.60;;
9007;SDS011;4539;51.424;6.762;2022-08-03T10:00:06;5.37;;;2.43;;
9007;SDS011;4539;51.424;6.762;2022-08-03T10:02:38;5.87;;;2.10;;
9007;SDS011;4539;51.424;6.762;2022-08-03T10:05:07;3.67;;;2.27;;
9007;SDS011;4539;51.424;6.762;2022-08-03T10:07:45;6.03;;;2.10;;
9007;SDS011;4539;51.424;6.762;2022-08-03T10:10:13;4.30;;;2.00;;
9007;SDS011;4539;51.424;6.762;2022-08-03T10:12:56;6.53;;;1.90;;
9007;SDS011;4539;51.424;6.762;2022-08-03T10:15:23;5.83;;;2.00;;
9007;SDS011;4539;51.424;6.762;2022-08-03T10:18:09;6.70;;;1.93;;
9007;SDS011;4539;51.424;6.762;2022-08-03T10:20:37;4.63;;;1.97;;
9007;SDS011;4539;51.424;6.762;2022-08-03T10:23:10;5.10;;;1.87;;
9007;SDS011;4539;51.424;6.762;2022-08-03T10:25:38;7.13;;;2.03;;
9007;SDS011;4539;51.424;6.762;2022-08-03T10:28:06;4.37;;;1.73;;
9007;SDS011;4539;51.424;6.762;2022-08-03T10:30:39;3.23;;;1.87;;
9007;SDS011;4539;51.424;6.762;2022-08-03T10:33:12;3.63;;;2.10;;
9007;SDS011;4539;51.424;6.762;2022-08-03T10:36:03;5.27;;;2.10;;
9007;SDS011;4539;51.424;6.762;2022-08-03T10:38:36;3.10;;;1.80;;
9007;SDS011;4539;51.424;6.762;2022-08-03T10:41:05;5.60;;;1.83;;
9007;SDS011;4539;51.424;6.762;2022-08-03T10:46:18;4.23;;;2.00;;
9007;SDS011;4539;51.424;6.762;2022-08-03T10:48:47;5.97;;;1.87;;
9007;SDS011;4539;51.424;6.762;2022-08-03T10:51:15;4.93;;;1.97;;
9007;SDS011;4539;51.424;6.762;2022-08-03T10:53:42;4.70;;;2.20;;
9007;SDS011;4539;51.424;6.762;2022-08-03T11:02:12;7.57;;;1.70;;
9007;SDS011;4539;51.424;6.762;2022-08-03T11:04:40;2.67;;;1.83;;
9007;SDS011;4539;51.424;6.762;2022-08-03T11:07:20;8.20;;;2.35;;
9007;SDS011;4539;51.424;6.762;2022-08-03T11:12:20;8.00;;;2.20;;
9007;SDS011;4539;51.424;6.762;2022-08-03T11:14:55;5.17;;;1.90;;
9007;SDS011;4539;51.424;6.762;2022-08-03T11:17:23;4.17;;;1.87;;
9007;SDS011;4539;51.424;6.762;2022-08-03T11:19:50;9.87;;;1.90;;
9007;SDS011;4539;51.424;6.762;2022-08-03T11:22:23;5.00;;;1.87;;
9007;SDS011;4539;51.424;6.762;2022-08-03T11:30:22;6.03;;;2.10;;
9007;SDS011;4539;51.424;6.762;2022-08-03T11:32:53;8.80;;;2.43;;
9007;SDS011;4539;51.424;6.762;2022-08-03T11:35:27;4.07;;;2.03;;
9007;SDS011;4539;51.424;6.762;2022-08-03T11:42:58;3.93;;;1.97;;
9007;SDS011;4539;51.424;6.762;2022-08-03T11:45:25;6.57;;;2.05;;
9007;SDS011;4539;51.424;6.762;2022-08-03T11:47:52;5.50;;;2.10;;
9007;SDS011;4539;51.424;6.762;2022-08-03T11:50:20;5.73;;;1.90;;
9007;SDS011;4539;51.424;6.762;2022-08-03T11:52:47;7.82;;;2.20;;
9007;SDS011;4539;51.424;6.762;2022-08-03T11:55:16;4.67;;;1.80;;
9007;SDS011;4539;51.424;6.762;2022-08-03T11:57:45;4.20;;;1.97;;
9007;SDS011;4539;51.424;6.762;2022-08-03T12:00:32;6.57;;;2.00;;
9007;SDS011;4539;51.424;6.762;2022-08-03T12:03:03;6.55;;;2.13;;
9007;SDS011;4539;51.424;6.762;2022-08-03T12:05:38;4.72;;;2.25;;
9007;SDS011;4539;51.424;6.762;2022-08-03T12:08:38;4.18;;;1.58;;
9007;SDS011;4539;51.424;6.762;2022-08-03T12:11:05;7.57;;;1.63;;
9007;SDS011;4539;51.424;6.762;2022-08-03T12:16:34;5.85;;;2.00;;
9007;SDS011;4539;51.424;6.762;2022-08-03T12:19:02;5.53;;;2.13;;
9007;SDS011;4539;51.424;6.762;2022-08-03T12:21:30;3.40;;;1.60;;
9007;SDS011;4539;51.424;6.762;2022-08-03T12:24:01;7.40;;;1.77;;
9007;SDS011;4539;51.424;6.762;2022-08-03T12:26:30;3.73;;;1.80;;
9007;SDS011;4539;51.424;6.762;2022-08-03T12:29:19;3.93;;;1.80;;
9007;SDS011;4539;51.424;6.762;2022-08-03T12:31:47;5.70;;;2.10;;
9007;SDS011;4539;51.424;6.762;2022-08-03T12:34:14;5.13;;;2.30;;
9007;SDS011;4539;51.424;6.762;2022-08-03T12:36:51;5.82;;;2.28;;
9007;SDS011;4539;51.424;6.762;2022-08-03T12:39:22;4.35;;;1.70;;
9007;SDS011;4539;51.424;6.762;2022-08-03T12:41:53;5.85;;;2.00;;
9007;SDS011;4539;51.424;6.762;2022-08-03T12:44:31;8.15;;;2.25;;
9007;SDS011;4539;51.424;6.762;2022-08-03T12:47:00;4.53;;;1.83;;
9007;SDS011;4539;51.424;6.762;2022-08-03T12:49:44;6.88;;;1.90;;
9007;SDS011;4539;51.424;6.762;2022-08-03T12:52:12;5.95;;;1.80;;
9007;SDS011;4539;51.424;6.762;2022-08-03T12:54:39;4.50;;;1.60;;
9007;SDS011;4539;51.424;6.762;2022-08-03T12:57:07;5.63;;;2.00;;
9007;SDS011;4539;51.424;6.762;2022-08-03T12:59:42;5.68;;;1.73;;
9007;SDS011;4539;51.424;6.762;2022-08-03T13:02:23;5.55;;;1.65;;
9007;SDS011;4539;51.424;6.762;2022-08-03T13:04:52;4.82;;;2.00;;
9007;SDS011;4539;51.424;6.762;2022-08-03T13:07:19;4.57;;;2.08;;
9007;SDS011;4539;51.424;6.762;2022-08-03T13:12:19;4.50;;;2.10;;
9007;SDS011;4539;51.424;6.762;2022-08-03T13:14:48;3.75;;;1.90;;
9007;SDS011;4539;51.424;6.762;2022-08-03T13:17:17;6.88;;;2.00;;
9007;SDS011;4539;51.424;6.762;2022-08-03T13:19:45;4.70;;;1.98;;
9007;SDS011;4539;51.424;6.762;2022-08-03T13:22:16;4.50;;;2.17;;
9007;SDS011;4539;51.424;6.762;2022-08-03T13:24:45;5.55;;;1.75;;
9007;SDS011;4539;51.424;6.762;2022-08-03T13:27:13;3.55;;;1.75;;
9007;SDS011;4539;51.424;6.762;2022-08-03T13:30:00;4.20;;;1.90;;
9007;SDS011;4539;51.424;6.762;2022-08-03T13:32:28;6.43;;;1.80;;
9007;SDS011;4539;51.424;6.762;2022-08-03T13:35:01;3.95;;;1.77;;
9007;SDS011;4539;51.424;6.762;2022-08-03T13:37:30;4.65;;;1.70;;
9007;SDS011;4539;51.424;6.762;2022-08-03T13:40:00;5.22;;;1.60;;
9007;SDS011;4539;51.424;6.762;2022-08-03T13:42:30;2.72;;;1.95;;
9007;SDS011;4539;51.424;6.762;2022-08-03T13:44:58;3.55;;;1.83;;
9007;SDS011;4539;51.424;6.762;2022-08-03T13:47:26;5.45;;;1.85;;
9007;SDS011;4539;51.424;6.762;2022-08-03T13:49:53;4.88;;;1.73;;
9007;SDS011;4539;51.424;6.762;2022-08-03T13:52:36;4.93;;;1.67;;
9007;SDS011;4539;51.424;6.762;2022-08-03T13:55:03;7.47;;;1.90;;
9007;SDS011;4539;51.424;6.762;2022-08-03T13:57:32;3.10;;;1.75;;
9007;SDS011;4539;51.424;6.762;2022-08-03T14:00:19;3.67;;;1.67;;
9007;SDS011;4539;51.424;6.762;2022-08-03T14:02:53;3.97;;;1.65;;
9007;SDS011;4539;51.424;6.762;2022-08-03T14:05:29;3.83;;;1.50;;
9007;SDS011;4539;51.424;6.762;2022-08-03T14:07:57;3.08;;;1.60;;
9007;SDS011;4539;51.424;6.762;2022-08-03T14:10:30;4.63;;;1.60;;
9007;SDS011;4539;51.424;6.762;2022-08-03T14:12:57;4.68;;;1.25;;
9007;SDS011;4539;51.424;6.762;2022-08-03T14:15:25;2.60;;;1.38;;
9007;SDS011;4539;51.424;6.762;2022-08-03T14:17:53;4.40;;;1.40;;
9007;SDS011;4539;51.424;6.762;2022-08-03T14:20:23;5.47;;;1.50;;
9007;SDS011;4539;51.424;6.762;2022-08-03T14:23:02;2.72;;;1.42;;
9007;SDS011;4539;51.424;6.762;2022-08-03T14:25:29;5.88;;;1.60;;
9007;SDS011;4539;51.424;6.762;2022-08-03T14:28:08;2.38;;;1.10;;
9007;SDS011;4539;51.424;6.762;2022-08-03T14:30:34;5.30;;;1.30;;
9007;SDS011;4539;51.424;6.762;2022-08-03T14:33:01;3.60;;;1.52;;
9007;SDS011;4539;51.424;6.762;2022-08-03T14:35:28;6.38;;;1.35;;
9007;SDS011;4539;51.424;6.762;2022-08-03T14:37:55;2.90;;;1.25;;
9007;SDS011;4539;51.424;6.762;2022-08-03T14:40:21;1.92;;;1.30;;
9007;SDS011;4539;51.424;6.762;2022-08-03T14:42:48;4.75;;;1.40;;
9007;SDS011;4539;51.424;6.762;2022-08-03T14:45:14;2.88;;;1.45;;
9007;SDS011;4539;51.424;6.762;2022-08-03T14:47:45;4.90;;;1.58;;
9007;SDS011;4539;51.424;6.762;2022-08-03T14:50:32;5.45;;;1.67;;
9007;SDS011;4539;51.424;6.762;2022-08-03T14:53:09;4.00;;;1.60;;
9007;SDS011;4539;51.424;6.762;2022-08-03T14:55:36;4.13;;;1.25;;
9007;SDS011;4539;51.424;6.762;2022-08-03T14:58:14;2.85;;;1.40;;
9007;SDS011;4539;51.424;6.762;2022-08-03T15:00:47;4.28;;;1.52;;
9007;SDS011;4539;51.424;6.762;2022-08-03T15:03:14;2.75;;;1.73;;
9007;SDS011;4539;51.424;6.762;2022-08-03T15:05:42;3.17;;;1.48;;
9007;SDS011;4539;51.424;6.762;2022-08-03T15:08:09;6.88;;;1.52;;
9007;SDS011;4539;51.424;6.762;2022-08-03T15:10:35;5.70;;;1.60;;
9007;SDS011;4539;51.424;6.762;2022-08-03T15:13:10;3.78;;;1.55;;
9007;SDS011;4539;51.424;6.762;2022-08-03T15:15:38;3.47;;;1.30;;
9007;SDS011;4539;51.424;6.762;2022-08-03T15:18:05;4.20;;;1.40;;
9007;SDS011;4539;51.424;6.762;2022-08-03T15:20:32;8.60;;;1.67;;
9007;SDS011;4539;51.424;6.762;2022-08-03T15:23:10;2.85;;;1.30;;
9007;SDS011;4539;51.424;6.762;2022-08-03T15:25:37;1.90;;;1.10;;
9007;SDS011;4539;51.424;6.762;2022-08-03T15:28:24;2.55;;;1.50;;
9007;SDS011;4539;51.424;6.762;2022-08-03T15:30:51;5.28;;;1.88;;
9007;SDS011;4539;51.424;6.762;2022-08-03T15:33:18;2.33;;;1.55;;
9007;SDS011;4539;51.424;6.762;2022-08-03T15:35:45;5.50;;;1.70;;
9007;SDS011;4539;51.424;6.762;2022-08-03T15:38:12;4.63;;;1.38;;
9007;SDS011;4539;51.424;6.762;2022-08-03T15:40:39;1.77;;;1.00;;
9007;SDS011;4539;51.424;6.762;2022-08-03T15:43:06;4.40;;;1.50;;
9007;SDS011;4539;51.424;6.762;2022-08-03T15:45:32;3.95;;;1.40;;
9007;SDS011;4539;51.424;6.762;2022-08-03T15:48:01;4.63;;;1.40;;
9007;SDS011;4539;51.424;6.762;2022-08-03T15:50:28;5.97;;;1.58;;
9007;SDS011;4539;51.424;6.762;2022-08-03T15:52:54;5.65;;;1.52;;
9007;SDS011;4539;51.424;6.762;2022-08-03T15:55:21;4.22;;;1.70;;
9007;SDS011;4539;51.424;6.762;2022-08-03T15:57:48;4.22;;;1.60;;
9007;SDS011;4539;51.424;6.762;2022-08-03T16:00:34;3.42;;;1.67;;
9007;SDS011;4539;51.424;6.762;2022-08-03T16:03:01;5.68;;;1.75;;
9007;SDS011;4539;51.424;6.762;2022-08-03T16:05:28;4.40;;;1.38;;
9007;SDS011;4539;51.424;6.762;2022-08-03T16:07:54;2.95;;;1.40;;
9007;SDS011;4539;51.424;6.762;2022-08-03T16:10:29;4.65;;;1.77;;
9007;SDS011;4539;51.424;6.762;2022-08-03T16:12:56;6.45;;;1.58;;
9007;SDS011;4539;51.424;6.762;2022-08-03T16:15:24;3.92;;;1.52;;
9007;SDS011;4539;51.424;6.762;2022-08-03T16:17:50;6.25;;;1.75;;
9007;SDS011;4539;51.424;6.762;2022-08-03T16:20:17;3.63;;;1.33;;
9007;SDS011;4539;51.424;6.762;2022-08-03T16:22:59;6.53;;;1.58;;
9007;SDS011;4539;51.424;6.762;2022-08-03T16:25:36;5.53;;;1.63;;
9007;SDS011;4539;51.424;6.762;2022-08-03T16:28:03;3.20;;;1.40;;